sensor_id;sensor_type;location;lat;lon;timestamp;P1;durP1;ratioP1;P2;durP2;ratioP2
71183;SDS011;58887;51.980;4.464;2023-07-20T00:01:52;970.78;;;549.96;;
71183;SDS011;58887;51.980;4.464;2023-07-20T00:04:17;1032.09;;;578.90;;
71183;SDS011;58887;51.980;4.464;2023-07-20T00:06:43;1004.59;;;565.07;;
71183;SDS011;58887;51.980;4.464;2023-07-20T00:09:08;1041.50;;;583.57;;
71183;SDS011;58887;51.980;4.464;2023-07-20T00:11:35;1132.71;;;629.87;;
71183;SDS011;58887;51.980;4.464;2023-07-20T00:14:05;1145.93;;;635.48;;
71183;SDS011;58887;51.980;4.464;2023-07-20T00:16:31;1120.25;;;623.80;;
71183;SDS011;58887;51.980;4.464;2023-07-20T00:18:57;1079.18;;;602.83;;
71183;SDS011;58887;51.980;4.464;2023-07-20T00:21:23;1129.47;;;629.81;;
71183;SDS011;58887;51.980;4.464;2023-07-20T00:23:49;1197.19;;;666.36;;
71183;SDS011;58887;51.980;4.464;2023-07-20T00:26:14;1372.24;;;760.89;;
71183;SDS011;58887;51.980;4.464;2023-07-20T00:28:40;2226.27;;;1191.75;;
71183;SDS011;58887;51.980;4.464;2023-07-20T00:31:06;1582.87;;;859.68;;
71183;SDS011;58887;51.980;4.464;2023-07-20T00:33:31;1361.46;;;747.69;;
71183;SDS011;58887;51.980;4.464;2023-07-20T00:35:57;1300.33;;;717.90;;
71183;SDS011;58887;51.980;4.464;2023-07-20T00:38:22;1286.03;;;708.48;;
71183;SDS011;58887;51.980;4.464;2023-07-20T00:40:48;1275.17;;;704.43;;
71183;SDS011;58887;51.980;4.464;2023-07-20T00:43:14;1258.41;;;695.40;;
71183;SDS011;58887;51.980;4.464;2023-07-20T00:45:40;1232.91;;;683.29;;
71183;SDS011;58887;51.980;4.464;2023-07-20T00:48:06;1182.93;;;658.40;;
71183;SDS011;58887;51.980;4.464;2023-07-20T00:50:33;1175.75;;;654.57;;
71183;SDS011;58887;51.980;4.464;2023-07-20T00:53:00;1223.12;;;676.94;;
71183;SDS011;58887;51.980;4.464;2023-07-20T00:55:30;1204.41;;;669.22;;
71183;SDS011;58887;51.980;4.464;2023-07-20T00:57:56;1300.23;;;717.10;;
71183;SDS011;58887;51.980;4.464;2023-07-20T01:00:22;1199.74;;;667.00;;
71183;SDS011;58887;51.980;4.464;2023-07-20T01:02:48;1239.45;;;687.25;;
71183;SDS011;58887;51.980;4.464;2023-07-20T01:05:14;1279.46;;;707.05;;
71183;SDS011;58887;51.980;4.464;2023-07-20T01:10:27;1321.84;;;728.63;;
71183;SDS011;58887;51.980;4.464;2023-07-20T01:13:01;1386.24;;;759.47;;
71183;SDS011;58887;51.980;4.464;2023-07-20T01:15:30;1380.16;;;756.11;;
71183;SDS011;58887;51.980;4.464;2023-07-20T01:18:01;1304.54;;;716.38;;
71183;SDS011;58887;51.980;4.464;2023-07-20T01:20:29;1277.83;;;702.49;;
71183;SDS011;58887;51.980;4.464;2023-07-20T01:23:22;1218.09;;;672.26;;
71183;SDS011;58887;51.980;4.464;2023-07-20T01:31:37;935.04;;;527.21;;
71183;SDS011;58887;51.980;4.464;2023-07-20T01:34:15;1130.97;;;628.91;;
71183;SDS011;58887;51.980;4.464;2023-07-20T01:36:44;1182.39;;;654.55;;
71183;SDS011;58887;51.980;4.464;2023-07-20T01:39:14;1157.39;;;642.66;;
71183;SDS011;58887;51.980;4.464;2023-07-20T01:41:39;1216.23;;;671.95;;
71183;SDS011;58887;51.980;4.464;2023-07-20T01:44:05;1261.35;;;694.74;;
71183;SDS011;58887;51.980;4.464;2023-07-20T01:46:31;1192.05;;;660.17;;
71183;SDS011;58887;51.980;4.464;2023-07-20T01:48:57;1217.97;;;673.82;;
71183;SDS011;58887;51.980;4.464;2023-07-20T01:51:22;1232.03;;;680.68;;
71183;SDS011;58887;51.980;4.464;2023-07-20T01:53:48;1246.70;;;689.38;;
71183;SDS011;58887;51.980;4.464;2023-07-20T01:56:13;1213.53;;;672.60;;
71183;SDS011;58887;51.980;4.464;2023-07-20T01:58:39;1314.22;;;722.02;;
71183;SDS011;58887;51.980;4.464;2023-07-20T02:01:04;1452.56;;;790.59;;
71183;SDS011;58887;51.980;4.464;2023-07-20T02:03:30;1480.78;;;806.30;;
71183;SDS011;58887;51.980;4.464;2023-07-20T02:05:56;1486.36;;;810.40;;
71183;SDS011;58887;51.980;4.464;2023-07-20T02:08:22;1582.83;;;857.53;;
71183;SDS011;58887;51.980;4.464;2023-07-20T02:10:48;1819.03;;;982.68;;
71183;SDS011;58887;51.980;4.464;2023-07-20T02:13:14;2324.92;;;1247.29;;
71183;SDS011;58887;51.980;4.464;2023-07-20T02:15:41;2325.41;;;1249.35;;
71183;SDS011;58887;51.980;4.464;2023-07-20T02:18:07;2157.63;;;1166.05;;
71183;SDS011;58887;51.980;4.464;2023-07-20T02:20:34;2240.24;;;1206.37;;
71183;SDS011;58887;51.980;4.464;2023-07-20T02:23:00;2172.33;;;1174.01;;
71183;SDS011;58887;51.980;4.464;2023-07-20T02:25:25;2146.28;;;1159.13;;
71183;SDS011;58887;51.980;4.464;2023-07-20T02:27:51;2320.69;;;1250.85;;
71183;SDS011;58887;51.980;4.464;2023-07-20T02:30:17;2490.10;;;1339.06;;
71183;SDS011;58887;51.980;4.464;2023-07-20T02:32:43;2678.16;;;1435.44;;
71183;SDS011;58887;51.980;4.464;2023-07-20T02:35:14;2647.13;;;1419.69;;
71183;SDS011;58887;51.980;4.464;2023-07-20T02:37:40;2495.78;;;1340.66;;
71183;SDS011;58887;51.980;4.464;2023-07-20T02:40:05;2468.83;;;1329.22;;
71183;SDS011;58887;51.980;4.464;2023-07-20T02:42:32;2451.88;;;1323.16;;
71183;SDS011;58887;51.980;4.464;2023-07-20T02:44:59;2614.47;;;1406.55;;
71183;SDS011;58887;51.980;4.464;2023-07-20T02:47:24;2635.40;;;1416.75;;
71183;SDS011;58887;51.980;4.464;2023-07-20T02:49:50;2903.27;;;1550.52;;
71183;SDS011;58887;51.980;4.464;2023-07-20T02:52:15;2530.15;;;1359.18;;
71183;SDS011;58887;51.980;4.464;2023-07-20T02:54:41;2594.38;;;1390.72;;
71183;SDS011;58887;51.980;4.464;2023-07-20T02:57:06;2436.53;;;1307.48;;
71183;SDS011;58887;51.980;4.464;2023-07-20T02:59:32;2331.47;;;1257.61;;
71183;SDS011;58887;51.980;4.464;2023-07-20T03:01:57;2146.76;;;1166.47;;
71183;SDS011;58887;51.980;4.464;2023-07-20T03:04:25;2265.65;;;1229.37;;
71183;SDS011;58887;51.980;4.464;2023-07-20T03:06:51;2439.72;;;1315.26;;
71183;SDS011;58887;51.980;4.464;2023-07-20T03:09:17;2484.48;;;1339.20;;
71183;SDS011;58887;51.980;4.464;2023-07-20T03:11:42;2397.62;;;1294.98;;
71183;SDS011;58887;51.980;4.464;2023-07-20T03:14:08;2477.30;;;1338.23;;
71183;SDS011;58887;51.980;4.464;2023-07-20T03:16:35;2570.54;;;1385.73;;
71183;SDS011;58887;51.980;4.464;2023-07-20T03:19:01;2386.47;;;1293.20;;
71183;SDS011;58887;51.980;4.464;2023-07-20T03:21:27;2367.16;;;1281.89;;
71183;SDS011;58887;51.980;4.464;2023-07-20T03:23:53;2584.23;;;1392.90;;
71183;SDS011;58887;51.980;4.464;2023-07-20T03:26:19;2518.70;;;1359.37;;
71183;SDS011;58887;51.980;4.464;2023-07-20T03:28:46;2492.30;;;1346.28;;
71183;SDS011;58887;51.980;4.464;2023-07-20T03:31:12;2336.56;;;1266.62;;
71183;SDS011;58887;51.980;4.464;2023-07-20T03:33:40;2302.43;;;1249.39;;
71183;SDS011;58887;51.980;4.464;2023-07-20T03:36:05;2299.86;;;1246.82;;
71183;SDS011;58887;51.980;4.464;2023-07-20T03:38:31;2254.03;;;1222.52;;
71183;SDS011;58887;51.980;4.464;2023-07-20T03:41:14;2305.32;;;1249.88;;
71183;SDS011;58887;51.980;4.464;2023-07-20T03:43:41;2308.97;;;1251.84;;
71183;SDS011;58887;51.980;4.464;2023-07-20T03:46:07;2076.01;;;1131.68;;
71183;SDS011;58887;51.980;4.464;2023-07-20T03:48:32;2103.75;;;1144.00;;
71183;SDS011;58887;51.980;4.464;2023-07-20T03:50:58;2139.14;;;1162.04;;
71183;SDS011;58887;51.980;4.464;2023-07-20T03:53:26;2073.33;;;1129.92;;
71183;SDS011;58887;51.980;4.464;2023-07-20T03:55:52;2181.83;;;1186.08;;
71183;SDS011;58887;51.980;4.464;2023-07-20T03:58:19;2140.40;;;1164.11;;
71183;SDS011;58887;51.980;4.464;2023-07-20T04:00:47;1971.23;;;1078.74;;
71183;SDS011;58887;51.980;4.464;2023-07-20T04:03:15;1975.60;;;1079.28;;
71183;SDS011;58887;51.980;4.464;2023-07-20T04:05:41;1944.22;;;1062.96;;
71183;SDS011;58887;51.980;4.464;2023-07-20T04:08:07;1924.09;;;1052.02;;
71183;SDS011;58887;51.980;4.464;2023-07-20T04:10:33;2045.23;;;1114.32;;
71183;SDS011;58887;51.980;4.464;2023-07-20T04:12:58;1779.53;;;971.46;;
71183;SDS011;58887;51.980;4.464;2023-07-20T04:15:25;1897.21;;;1021.72;;
71183;SDS011;58887;51.980;4.464;2023-07-20T04:17:50;1731.06;;;933.63;;
71183;SDS011;58887;51.980;4.464;2023-07-20T04:20:16;2151.25;;;1152.77;;
71183;SDS011;58887;51.980;4.464;2023-07-20T04:22:43;1921.83;;;1033.66;;
71183;SDS011;58887;51.980;4.464;2023-07-20T04:25:09;1836.45;;;986.36;;
71183;SDS011;58887;51.980;4.464;2023-07-20T04:27:35;1717.55;;;929.08;;
71183;SDS011;58887;51.980;4.464;2023-07-20T04:30:01;1644.48;;;890.40;;
71183;SDS011;58887;51.980;4.464;2023-07-20T04:32:27;1750.93;;;941.69;;
71183;SDS011;58887;51.980;4.464;2023-07-20T04:34:54;1744.90;;;939.17;;
71183;SDS011;58887;51.980;4.464;2023-07-20T04:37:19;1790.13;;;962.85;;
71183;SDS011;58887;51.980;4.464;2023-07-20T04:39:45;1898.71;;;1018.22;;
71183;SDS011;58887;51.980;4.464;2023-07-20T04:42:12;1818.28;;;976.51;;
71183;SDS011;58887;51.980;4.464;2023-07-20T04:44:37;1759.66;;;947.64;;
71183;SDS011;58887;51.980;4.464;2023-07-20T04:47:03;1776.39;;;957.00;;
71183;SDS011;58887;51.980;4.464;2023-07-20T04:49:29;1737.27;;;936.69;;
71183;SDS011;58887;51.980;4.464;2023-07-20T04:51:54;1637.43;;;886.89;;
71183;SDS011;58887;51.980;4.464;2023-07-20T04:54:20;1696.22;;;915.11;;
71183;SDS011;58887;51.980;4.464;2023-07-20T04:56:45;1769.16;;;951.97;;
71183;SDS011;58887;51.980;4.464;2023-07-20T04:59:11;1762.50;;;950.92;;
71183;SDS011;58887;51.980;4.464;2023-07-20T05:01:36;1666.93;;;902.02;;
71183;SDS011;58887;51.980;4.464;2023-07-20T05:04:02;1678.04;;;905.07;;
71183;SDS011;58887;51.980;4.464;2023-07-20T05:06:27;1660.84;;;895.66;;
71183;SDS011;58887;51.980;4.464;2023-07-20T05:08:53;1662.46;;;897.11;;
71183;SDS011;58887;51.980;4.464;2023-07-20T05:11:18;1754.11;;;943.20;;
71183;SDS011;58887;51.980;4.464;2023-07-20T05:13:44;1789.01;;;961.22;;
71183;SDS011;58887;51.980;4.464;2023-07-20T05:16:10;1801.97;;;967.99;;
71183;SDS011;58887;51.980;4.464;2023-07-20T05:18:36;2009.06;;;1072.32;;
71183;SDS011;58887;51.980;4.464;2023-07-20T05:21:01;2238.35;;;1186.88;;
71183;SDS011;58887;51.980;4.464;2023-07-20T05:23:27;2238.84;;;1188.85;;
71183;SDS011;58887;51.980;4.464;2023-07-20T05:25:56;2234.01;;;1188.08;;
71183;SDS011;58887;51.980;4.464;2023-07-20T05:28:23;2152.09;;;1150.31;;
71183;SDS011;58887;51.980;4.464;2023-07-20T05:30:49;2199.86;;;1171.13;;
71183;SDS011;58887;51.980;4.464;2023-07-20T05:33:17;2251.88;;;1198.64;;
71183;SDS011;58887;51.980;4.464;2023-07-20T05:35:54;2300.82;;;1226.99;;
71183;SDS011;58887;51.980;4.464;2023-07-20T05:38:19;2094.29;;;1115.92;;
71183;SDS011;58887;51.980;4.464;2023-07-20T05:40:45;1899.22;;;1016.01;;
71183;SDS011;58887;51.980;4.464;2023-07-20T05:43:12;1883.59;;;1008.85;;
71183;SDS011;58887;51.980;4.464;2023-07-20T05:45:41;1860.95;;;998.95;;
71183;SDS011;58887;51.980;4.464;2023-07-20T05:48:07;1892.82;;;1015.60;;
71183;SDS011;58887;51.980;4.464;2023-07-20T05:50:34;1835.34;;;985.98;;
71183;SDS011;58887;51.980;4.464;2023-07-20T05:53:00;1815.92;;;976.67;;
71183;SDS011;58887;51.980;4.464;2023-07-20T05:55:25;1913.24;;;1024.45;;
71183;SDS011;58887;51.980;4.464;2023-07-20T05:57:51;1897.93;;;1016.58;;
71183;SDS011;58887;51.980;4.464;2023-07-20T06:00:17;1807.35;;;972.33;;
71183;SDS011;58887;51.980;4.464;2023-07-20T06:02:45;1852.05;;;993.21;;
71183;SDS011;58887;51.980;4.464;2023-07-20T06:05:13;1897.96;;;1016.75;;
71183;SDS011;58887;51.980;4.464;2023-07-20T06:07:45;1825.39;;;980.78;;
71183;SDS011;58887;51.980;4.464;2023-07-20T06:10:11;1832.92;;;987.03;;
71183;SDS011;58887;51.980;4.464;2023-07-20T06:12:37;1905.51;;;1022.18;;
71183;SDS011;58887;51.980;4.464;2023-07-20T06:15:03;1834.43;;;987.66;;
71183;SDS011;58887;51.980;4.464;2023-07-20T06:17:30;2084.01;;;1111.10;;
71183;SDS011;58887;51.980;4.464;2023-07-20T06:19:56;2166.27;;;1154.18;;
71183;SDS011;58887;51.980;4.464;2023-07-20T06:22:21;2080.04;;;1112.78;;
71183;SDS011;58887;51.980;4.464;2023-07-20T06:24:47;2239.91;;;1193.15;;
71183;SDS011;58887;51.980;4.464;2023-07-20T06:27:12;2263.70;;;1204.01;;
71183;SDS011;58887;51.980;4.464;2023-07-20T06:29:39;2383.11;;;1266.24;;
71183;SDS011;58887;51.980;4.464;2023-07-20T06:32:05;2387.33;;;1268.62;;
71183;SDS011;58887;51.980;4.464;2023-07-20T06:34:31;2421.24;;;1287.20;;
71183;SDS011;58887;51.980;4.464;2023-07-20T06:36:56;2411.37;;;1281.29;;
71183;SDS011;58887;51.980;4.464;2023-07-20T06:39:22;2263.12;;;1206.97;;
71183;SDS011;58887;51.980;4.464;2023-07-20T06:41:47;2280.88;;;1216.27;;
71183;SDS011;58887;51.980;4.464;2023-07-20T06:44:13;2360.02;;;1255.18;;
71183;SDS011;58887;51.980;4.464;2023-07-20T06:46:38;2379.76;;;1263.99;;
71183;SDS011;58887;51.980;4.464;2023-07-20T06:49:05;2595.92;;;1375.11;;
71183;SDS011;58887;51.980;4.464;2023-07-20T06:51:32;2337.60;;;1244.19;;
71183;SDS011;58887;51.980;4.464;2023-07-20T06:53:58;2281.47;;;1215.76;;
71183;SDS011;58887;51.980;4.464;2023-07-20T06:56:23;2376.53;;;1263.32;;
71183;SDS011;58887;51.980;4.464;2023-07-20T06:58:48;2767.51;;;1458.95;;
71183;SDS011;58887;51.980;4.464;2023-07-20T07:01:14;2848.94;;;1499.45;;
71183;SDS011;58887;51.980;4.464;2023-07-20T07:03:40;3031.24;;;1591.17;;
71183;SDS011;58887;51.980;4.464;2023-07-20T07:06:05;3080.30;;;1616.11;;
71183;SDS011;58887;51.980;4.464;2023-07-20T07:08:31;2760.65;;;1456.73;;
71183;SDS011;58887;51.980;4.464;2023-07-20T07:10:57;2615.73;;;1382.97;;
71183;SDS011;58887;51.980;4.464;2023-07-20T07:13:22;2520.73;;;1336.02;;
71183;SDS011;58887;51.980;4.464;2023-07-20T07:15:48;2403.61;;;1276.50;;
71183;SDS011;58887;51.980;4.464;2023-07-20T07:18:13;2416.62;;;1283.07;;
71183;SDS011;58887;51.980;4.464;2023-07-20T07:20:39;2601.46;;;1374.24;;
71183;SDS011;58887;51.980;4.464;2023-07-20T07:23:05;2567.32;;;1358.50;;
71183;SDS011;58887;51.980;4.464;2023-07-20T07:25:30;2522.59;;;1333.98;;
71183;SDS011;58887;51.980;4.464;2023-07-20T07:27:57;2513.96;;;1328.95;;
71183;SDS011;58887;51.980;4.464;2023-07-20T07:30:22;2351.51;;;1246.75;;
71183;SDS011;58887;51.980;4.464;2023-07-20T07:32:49;2326.68;;;1233.84;;
71183;SDS011;58887;51.980;4.464;2023-07-20T07:35:23;2495.03;;;1319.63;;
71183;SDS011;58887;51.980;4.464;2023-07-20T07:37:48;2626.91;;;1385.23;;
71183;SDS011;58887;51.980;4.464;2023-07-20T07:40:14;2487.50;;;1315.66;;
71183;SDS011;58887;51.980;4.464;2023-07-20T07:42:40;2093.81;;;1115.73;;
71183;SDS011;58887;51.980;4.464;2023-07-20T07:45:14;2644.22;;;1393.51;;
71183;SDS011;58887;51.980;4.464;2023-07-20T07:47:40;2625.51;;;1383.45;;
71183;SDS011;58887;51.980;4.464;2023-07-20T07:50:12;3585.62;;;1910.93;;
71183;SDS011;58887;51.980;4.464;2023-07-20T07:55:16;3651.49;;;1922.13;;
71183;SDS011;58887;51.980;4.464;2023-07-20T07:57:47;3085.81;;;1614.79;;
71183;SDS011;58887;51.980;4.464;2023-07-20T08:00:13;3309.72;;;1728.34;;
71183;SDS011;58887;51.980;4.464;2023-07-20T08:02:40;3300.37;;;1720.11;;
71183;SDS011;58887;51.980;4.464;2023-07-20T08:05:07;3291.34;;;1714.90;;
71183;SDS011;58887;51.980;4.464;2023-07-20T08:07:33;3401.91;;;1768.37;;
71183;SDS011;58887;51.980;4.464;2023-07-20T08:10:00;3562.56;;;1851.13;;
71183;SDS011;58887;51.980;4.464;2023-07-20T08:12:26;3458.53;;;1798.24;;
71183;SDS011;58887;51.980;4.464;2023-07-20T08:14:55;3692.04;;;1918.37;;
71183;SDS011;58887;51.980;4.464;2023-07-20T08:17:21;3679.42;;;1920.35;;
71183;SDS011;58887;51.980;4.464;2023-07-20T08:19:48;7509.39;;;3918.07;;
71183;SDS011;58887;51.980;4.464;2023-07-20T08:22:13;5167.25;;;2713.91;;
71183;SDS011;58887;51.980;4.464;2023-07-20T08:24:39;2616.36;;;1373.51;;
71183;SDS011;58887;51.980;4.464;2023-07-20T08:27:05;2525.93;;;1328.55;;
71183;SDS011;58887;51.980;4.464;2023-07-20T08:29:32;2446.82;;;1288.92;;
71183;SDS011;58887;51.980;4.464;2023-07-20T08:32:04;2350.93;;;1242.69;;
71183;SDS011;58887;51.980;4.464;2023-07-20T08:34:30;2147.12;;;1141.84;;
71183;SDS011;58887;51.980;4.464;2023-07-20T08:36:56;2102.43;;;1120.02;;
71183;SDS011;58887;51.980;4.464;2023-07-20T08:39:23;2088.01;;;1111.45;;
71183;SDS011;58887;51.980;4.464;2023-07-20T08:41:49;2170.15;;;1152.49;;
71183;SDS011;58887;51.980;4.464;2023-07-20T08:44:22;2273.29;;;1205.06;;
71183;SDS011;58887;51.980;4.464;2023-07-20T08:46:48;3953.95;;;2101.10;;
71183;SDS011;58887;51.980;4.464;2023-07-20T08:49:22;5049.42;;;2656.41;;
71183;SDS011;58887;51.980;4.464;2023-07-20T08:51:50;2746.28;;;1443.79;;
71183;SDS011;58887;51.980;4.464;2023-07-20T08:54:27;2878.11;;;1510.37;;
71183;SDS011;58887;51.980;4.464;2023-07-20T08:56:58;3071.10;;;1606.10;;
71183;SDS011;58887;51.980;4.464;2023-07-20T08:59:35;2944.47;;;1541.07;;
71183;SDS011;58887;51.980;4.464;2023-07-20T09:02:05;3019.14;;;1576.60;;
71183;SDS011;58887;51.980;4.464;2023-07-20T09:04:37;3113.31;;;1623.98;;
71183;SDS011;58887;51.980;4.464;2023-07-20T09:07:04;3163.33;;;1648.18;;
71183;SDS011;58887;51.980;4.464;2023-07-20T09:12:15;3083.29;;;1613.08;;
71183;SDS011;58887;51.980;4.464;2023-07-20T09:17:45;3383.05;;;1758.47;;
71183;SDS011;58887;51.980;4.464;2023-07-20T09:20:24;3474.20;;;1804.86;;
71183;SDS011;58887;51.980;4.464;2023-07-20T09:22:54;3740.32;;;1941.12;;
71183;SDS011;58887;51.980;4.464;2023-07-20T09:25:28;3489.90;;;1815.22;;
71183;SDS011;58887;51.980;4.464;2023-07-20T09:28:02;3389.95;;;1766.75;;
71183;SDS011;58887;51.980;4.464;2023-07-20T09:30:29;3548.94;;;1841.31;;
71183;SDS011;58887;51.980;4.464;2023-07-20T09:32:54;3700.97;;;1917.69;;
71183;SDS011;58887;51.980;4.464;2023-07-20T09:38:00;3829.91;;;1982.87;;
71183;SDS011;58887;51.980;4.464;2023-07-20T09:40:27;3605.84;;;1869.89;;
71183;SDS011;58887;51.980;4.464;2023-07-20T09:42:53;3657.94;;;1895.63;;
71183;SDS011;58887;51.980;4.464;2023-07-20T09:45:35;3931.00;;;2035.35;;
71183;SDS011;58887;51.980;4.464;2023-07-20T09:48:07;3712.42;;;1924.41;;
71183;SDS011;58887;51.980;4.464;2023-07-20T09:50:39;3390.72;;;1762.24;;
71183;SDS011;58887;51.980;4.464;2023-07-20T09:53:13;3421.46;;;1775.43;;
71183;SDS011;58887;51.980;4.464;2023-07-20T09:55:43;3395.55;;;1763.16;;
71183;SDS011;58887;51.980;4.464;2023-07-20T09:58:21;3333.38;;;1731.38;;
71183;SDS011;58887;51.980;4.464;2023-07-20T10:00:47;3305.77;;;1717.88;;
71183;SDS011;58887;51.980;4.464;2023-07-20T10:03:22;3439.01;;;1784.43;;
71183;SDS011;58887;51.980;4.464;2023-07-20T10:06:25;3235.83;;;1682.78;;
71183;SDS011;58887;51.980;4.464;2023-07-20T10:08:49;3260.12;;;1695.86;;
71183;SDS011;58887;51.980;4.464;2023-07-20T10:11:20;3274.22;;;1702.52;;
71183;SDS011;58887;51.980;4.464;2023-07-20T10:13:49;3295.35;;;1713.36;;
71183;SDS011;58887;51.980;4.464;2023-07-20T10:16:38;3355.75;;;1743.28;;
71183;SDS011;58887;51.980;4.464;2023-07-20T10:22:14;3321.82;;;1725.95;;
71183;SDS011;58887;51.980;4.464;2023-07-20T10:27:13;3324.74;;;1727.25;;
71183;SDS011;58887;51.980;4.464;2023-07-20T10:29:48;3250.04;;;1689.64;;
71183;SDS011;58887;51.980;4.464;2023-07-20T10:32:14;3301.30;;;1717.40;;
71183;SDS011;58887;51.980;4.464;2023-07-20T10:34:40;3356.31;;;1746.10;;
71183;SDS011;58887;51.980;4.464;2023-07-20T10:37:06;3733.16;;;1933.81;;
71183;SDS011;58887;51.980;4.464;2023-07-20T10:39:32;3840.90;;;1987.87;;
71183;SDS011;58887;51.980;4.464;2023-07-20T10:42:01;3714.90;;;1923.42;;
71183;SDS011;58887;51.980;4.464;2023-07-20T10:44:34;3821.82;;;1976.41;;
71183;SDS011;58887;51.980;4.464;2023-07-20T10:47:03;3727.84;;;1930.68;;
71183;SDS011;58887;51.980;4.464;2023-07-20T10:49:34;3856.28;;;1995.24;;
71183;SDS011;58887;51.980;4.464;2023-07-20T10:52:04;3733.15;;;1932.19;;
71183;SDS011;58887;51.980;4.464;2023-07-20T10:56:57;4082.39;;;2108.40;;
71183;SDS011;58887;51.980;4.464;2023-07-20T10:59:43;4309.08;;;2223.62;;
71183;SDS011;58887;51.980;4.464;2023-07-20T11:02:12;8013.66;;;4127.73;;
71183;SDS011;58887;51.980;4.464;2023-07-20T11:04:41;5105.79;;;2627.46;;
71183;SDS011;58887;51.980;4.464;2023-07-20T11:07:08;7178.57;;;3703.05;;
71183;SDS011;58887;51.980;4.464;2023-07-20T11:09:34;4879.32;;;2513.16;;
71183;SDS011;58887;51.980;4.464;2023-07-20T11:12:11;4836.74;;;2491.95;;
71183;SDS011;58887;51.980;4.464;2023-07-20T11:14:53;4708.15;;;2429.19;;
71183;SDS011;58887;51.980;4.464;2023-07-20T11:17:22;7767.80;;;4004.35;;
71183;SDS011;58887;51.980;4.464;2023-07-20T11:19:58;6088.69;;;3132.43;;
71183;SDS011;58887;51.980;4.464;2023-07-20T11:22:29;5572.82;;;2864.49;;
71183;SDS011;58887;51.980;4.464;2023-07-20T11:24:56;5100.29;;;2621.58;;
71183;SDS011;58887;51.980;4.464;2023-07-20T11:27:23;5081.62;;;2613.14;;
71183;SDS011;58887;51.980;4.464;2023-07-20T11:29:49;5131.55;;;2639.36;;
71183;SDS011;58887;51.980;4.464;2023-07-20T11:32:21;5280.78;;;2713.21;;
71183;SDS011;58887;51.980;4.464;2023-07-20T11:34:48;5419.77;;;2787.12;;
71183;SDS011;58887;51.980;4.464;2023-07-20T11:37:15;5560.19;;;2860.13;;
71183;SDS011;58887;51.980;4.464;2023-07-20T11:39:41;5622.42;;;2895.32;;
71183;SDS011;58887;51.980;4.464;2023-07-20T11:42:07;5007.36;;;2576.87;;
71183;SDS011;58887;51.980;4.464;2023-07-20T11:44:33;4640.66;;;2390.26;;
71183;SDS011;58887;51.980;4.464;2023-07-20T11:47:07;4819.73;;;2479.60;;
71183;SDS011;58887;51.980;4.464;2023-07-20T11:49:38;4737.25;;;2438.73;;
71183;SDS011;58887;51.980;4.464;2023-07-20T11:52:09;6994.39;;;3604.78;;
71183;SDS011;58887;51.980;4.464;2023-07-20T11:54:40;11802.77;;;6078.44;;
71183;SDS011;58887;51.980;4.464;2023-07-20T11:57:06;11250.98;;;5801.12;;
71183;SDS011;58887;51.980;4.464;2023-07-20T11:59:32;4466.20;;;2300.14;;
71183;SDS011;58887;51.980;4.464;2023-07-20T12:02:01;10248.43;;;5287.75;;
71183;SDS011;58887;51.980;4.464;2023-07-20T12:04:28;11034.81;;;5714.43;;
71183;SDS011;58887;51.980;4.464;2023-07-20T12:06:54;12927.21;;;6688.75;;
71183;SDS011;58887;51.980;4.464;2023-07-20T12:09:20;8614.67;;;4453.78;;
71183;SDS011;58887;51.980;4.464;2023-07-20T12:11:48;7996.46;;;4131.26;;
71183;SDS011;58887;51.980;4.464;2023-07-20T12:14:15;10675.23;;;5506.40;;
71183;SDS011;58887;51.980;4.464;2023-07-20T12:16:42;4975.70;;;2562.11;;
71183;SDS011;58887;51.980;4.464;2023-07-20T12:19:10;4553.53;;;2347.10;;
71183;SDS011;58887;51.980;4.464;2023-07-20T12:21:40;4614.07;;;2374.26;;
71183;SDS011;58887;51.980;4.464;2023-07-20T12:24:07;5361.90;;;2758.84;;
71183;SDS011;58887;51.980;4.464;2023-07-20T12:26:35;5200.52;;;2675.89;;
71183;SDS011;58887;51.980;4.464;2023-07-20T12:29:02;4575.30;;;2355.68;;
71183;SDS011;58887;51.980;4.464;2023-07-20T12:31:29;4489.43;;;2311.80;;
71183;SDS011;58887;51.980;4.464;2023-07-20T12:33:56;4439.59;;;2286.01;;
71183;SDS011;58887;51.980;4.464;2023-07-20T12:36:22;4482.44;;;2306.94;;
71183;SDS011;58887;51.980;4.464;2023-07-20T12:38:49;4529.07;;;2330.76;;
71183;SDS011;58887;51.980;4.464;2023-07-20T12:41:15;4547.46;;;2339.21;;
71183;SDS011;58887;51.980;4.464;2023-07-20T12:43:41;4514.03;;;2322.83;;
71183;SDS011;58887;51.980;4.464;2023-07-20T12:46:08;4636.09;;;2383.35;;
71183;SDS011;58887;51.980;4.464;2023-07-20T12:48:35;4483.77;;;2307.05;;
71183;SDS011;58887;51.980;4.464;2023-07-20T12:51:06;4605.43;;;2367.75;;
71183;SDS011;58887;51.980;4.464;2023-07-20T12:53:33;4460.50;;;2294.07;;
71183;SDS011;58887;51.980;4.464;2023-07-20T12:55:59;4460.45;;;2295.43;;
71183;SDS011;58887;51.980;4.464;2023-07-20T12:58:25;5302.20;;;2724.67;;
71183;SDS011;58887;51.980;4.464;2023-07-20T13:00:51;4942.53;;;2543.76;;
71183;SDS011;58887;51.980;4.464;2023-07-20T13:03:16;4509.78;;;2322.82;;
71183;SDS011;58887;51.980;4.464;2023-07-20T13:05:44;4637.28;;;2385.65;;
71183;SDS011;58887;51.980;4.464;2023-07-20T13:08:10;4551.17;;;2342.28;;
71183;SDS011;58887;51.980;4.464;2023-07-20T13:10:36;4478.55;;;2305.19;;
71183;SDS011;58887;51.980;4.464;2023-07-20T13:13:03;4531.41;;;2335.93;;
71183;SDS011;58887;51.980;4.464;2023-07-20T13:15:30;4237.82;;;2183.29;;
71183;SDS011;58887;51.980;4.464;2023-07-20T13:17:57;4335.12;;;2232.79;;
71183;SDS011;58887;51.980;4.464;2023-07-20T13:20:24;4308.76;;;2219.99;;
71183;SDS011;58887;51.980;4.464;2023-07-20T13:22:50;4631.75;;;2381.90;;
71183;SDS011;58887;51.980;4.464;2023-07-20T13:25:17;4345.83;;;2238.81;;
71183;SDS011;58887;51.980;4.464;2023-07-20T13:27:44;4347.09;;;2239.80;;
71183;SDS011;58887;51.980;4.464;2023-07-20T13:30:09;4498.79;;;2314.23;;
71183;SDS011;58887;51.980;4.464;2023-07-20T13:32:41;4507.25;;;2320.24;;
71183;SDS011;58887;51.980;4.464;2023-07-20T13:35:08;4343.47;;;2236.85;;
71183;SDS011;58887;51.980;4.464;2023-07-20T13:37:33;4442.15;;;2285.34;;
71183;SDS011;58887;51.980;4.464;2023-07-20T13:40:00;4419.44;;;2273.46;;
71183;SDS011;58887;51.980;4.464;2023-07-20T13:42:25;4466.98;;;2298.01;;
71183;SDS011;58887;51.980;4.464;2023-07-20T13:44:52;5106.66;;;2628.23;;
71183;SDS011;58887;51.980;4.464;2023-07-20T13:47:18;4301.52;;;2216.09;;
71183;SDS011;58887;51.980;4.464;2023-07-20T13:49:53;4356.61;;;2242.55;;
71183;SDS011;58887;51.980;4.464;2023-07-20T13:52:23;4481.98;;;2309.66;;
71183;SDS011;58887;51.980;4.464;2023-07-20T13:54:48;4323.90;;;2228.54;;
71183;SDS011;58887;51.980;4.464;2023-07-20T13:57:14;4235.17;;;2180.42;;
71183;SDS011;58887;51.980;4.464;2023-07-20T13:59:41;4605.56;;;2371.92;;
71183;SDS011;58887;51.980;4.464;2023-07-20T14:02:07;4512.84;;;2324.71;;
71183;SDS011;58887;51.980;4.464;2023-07-20T14:04:34;4186.94;;;2156.54;;
71183;SDS011;58887;51.980;4.464;2023-07-20T14:07:00;4322.02;;;2224.46;;